Weather reports worldwide

Advertisment
East malling, United Kingdom (99008): temperature & dewpoint: 04.12.2018 09:00:00 - 10.12.2018 09:00:00 (GMT)East malling, United Kingdom (99008): temperature -20cm: 04.12.2018 09:00:00 - 10.12.2018 09:00:00 (GMT)East malling, United Kingdom (99008): wind speed & gusts: 04.12.2018 09:00:00 - 10.12.2018 09:00:00 (GMT)East malling, United Kingdom (99008): wind direction: 04.12.2018 09:00:00 - 10.12.2018 09:00:00 (GMT)East malling, United Kingdom (99008): reduced air pressure: 04.12.2018 09:00:00 - 10.12.2018 09:00:00 (GMT)East malling, United Kingdom (99008): sunshine duration: 04.12.2018 09:00:00 - 10.12.2018 09:00:00 (GMT)East malling, United Kingdom (99008): precipitation: 04.12.2018 09:00:00 - 10.12.2018 09:00:00 (GMT)
Date & Time tt [°C] td [°C] tt -20cm [°C] ff [km/h] ff [kn] fx [km/h] fx [kn] dd ppp [hPa] sd [min] rr [mm]
10.12.2018 09:00:00 7,4 4,6 8,0 13 7 - - W 1026,6 12 0,0
10.12.2018 08:00:00 7,5 4,6 - 9 5 - - W 1026,0 0 0,0
10.12.2018 07:00:00 7,3 4,6 - 11 6 - - WSW 1025,7 0 0,0
10.12.2018 06:00:00 7,0 4,5 - 8 4 - - WSW 1025,2 0 0,0
10.12.2018 05:00:00 7,1 4,4 - 9 5 - - WSW 1024,8 0 0,0
10.12.2018 04:00:00 6,6 4,5 - 8 4 - - WSW 1024,4 0 0,0
10.12.2018 03:00:00 6,1 4,2 - 9 5 - - SW 1023,8 0 0,0
10.12.2018 02:00:00 5,3 4,0 - 9 5 - - SW 1023,5 0 0,0
10.12.2018 01:00:00 5,1 3,7 - 11 6 - - SSW 1023,2 0 0,0
10.12.2018 00:00:00 5,9 3,7 - 11 6 - - SW 1022,9 - 0,0
09.12.2018 23:00:00 5,9 3,7 - 8 4 - - SW 1022,1 0 0,0
09.12.2018 22:00:00 7,4 4,2 - 9 5 - - W 1021,2 0 0,0
09.12.2018 21:00:00 8,7 4,7 - 9 5 - - W 1020,4 0 0,0
09.12.2018 20:00:00 9,0 4,8 - 11 6 - - WNW 1019,9 0 0,0
09.12.2018 19:00:00 9,0 4,3 - 15 8 - - WNW 1018,7 0 0,0
09.12.2018 18:00:00 8,6 4,0 - 15 8 - - WNW 1017,6 0 0,0
09.12.2018 17:00:00 9,0 3,9 - 18 10 - - WNW 1016,2 0 0,0
09.12.2018 16:00:00 9,9 4,3 - 21 11 - - WNW 1014,8 18 0,0
09.12.2018 15:00:00 10,0 4,4 - 13 7 - - WNW 1013,0 0 0,0
09.12.2018 14:00:00 9,8 3,4 - 24 13 48 26 NW 1011,5 12 0,0
09.12.2018 13:00:00 10,1 4,0 - 28 15 48 26 NW 1010,0 18 0,0
09.12.2018 12:00:00 10,0 5,9 - 22 12 46 25 WNW 1008,6 0 0,0
09.12.2018 11:00:00 9,9 6,7 - 22 12 - - WNW 1006,8 6 0,2
09.12.2018 10:00:00 9,7 6,5 - 24 13 - - W 1005,5 18 0,0
09.12.2018 09:00:00 10,1 5,6 8,7 28 15 50 27 W 1003,7 18 0,0
09.12.2018 08:00:00 9,6 6,2 - 22 12 - - W 1002,4 0 0,0
09.12.2018 07:00:00 9,8 5,9 - 26 14 55 30 W 1001,0 0 0,0
09.12.2018 06:00:00 10,0 5,3 - 29 16 52 28 W 1000,5 0 0,0
09.12.2018 05:00:00 9,6 5,2 - 24 13 54 29 WSW 1000,4 0 0,0
09.12.2018 04:00:00 9,1 4,9 - 26 14 54 29 WSW 1000,0 0 0,0
09.12.2018 03:00:00 8,6 4,8 - 21 11 54 29 WSW 1000,4 0 0,0
09.12.2018 02:00:00 9,3 4,7 - 26 14 48 26 WSW 1000,1 0 0,0
09.12.2018 01:00:00 9,1 4,8 - 26 14 57 31 WSW 999,6 0 0,0
09.12.2018 00:00:00 9,0 5,2 - 26 14 52 28 WSW 999,7 - 0,0
08.12.2018 23:00:00 9,6 4,9 - 28 15 54 29 W 999,1 0 0,0
08.12.2018 22:00:00 9,9 5,3 - 29 16 50 27 WSW 999,3 0 0,0
08.12.2018 21:00:00 9,8 5,8 - 28 15 52 28 W 998,9 0 0,2
08.12.2018 20:00:00 9,7 6,8 - 24 13 46 25 W 998,6 0 0,4
08.12.2018 19:00:00 10,8 6,8 - 24 13 48 26 WSW 998,6 0 0,0
08.12.2018 18:00:00 10,7 7,1 - 26 14 59 32 WSW 998,4 0 0,4
08.12.2018 17:00:00 11,4 8,9 - 18 10 - - WSW 999,1 0 0,4
08.12.2018 16:00:00 11,4 10,1 - 21 11 59 32 WSW 999,8 0 2,0
08.12.2018 15:00:00 10,7 9,9 - 16 9 - - SSW 1001,0 0 0,6
08.12.2018 14:00:00 11,5 7,9 - 22 12 - - SW 1002,5 0 0,0
08.12.2018 13:00:00 11,0 6,5 - 22 12 - - SW 1004,2 0 0,0
08.12.2018 12:00:00 10,7 5,6 - 24 13 50 27 WSW 1005,2 24 0,0
08.12.2018 11:00:00 10,5 5,4 - 24 13 50 27 WSW 1005,9 36 0,0
08.12.2018 10:00:00 9,9 4,6 - 28 15 52 28 WSW 1006,0 12 0,0
08.12.2018 09:00:00 9,3 4,1 8,7 26 14 46 25 W 1006,0 6 0,0
08.12.2018 08:00:00 9,2 3,8 - 24 13 48 26 W 1006,0 0 0,0
08.12.2018 07:00:00 9,4 4,2 - 18 10 46 25 WSW 1005,6 0 0,0
08.12.2018 06:00:00 8,7 4,8 - 21 11 46 25 WSW 1004,8 0 0,0
08.12.2018 05:00:00 8,3 5,0 - 24 13 - - WSW 1004,8 0 0,0
08.12.2018 04:00:00 8,4 4,5 - 22 12 - - WSW 1004,9 0 0,0
08.12.2018 03:00:00 8,1 4,2 - 21 11 - - WSW 1005,3 0 0,0
08.12.2018 02:00:00 7,9 4,1 - 22 12 - - WSW 1005,2 0 0,0
08.12.2018 01:00:00 7,7 3,8 - 21 11 - - SW 1005,4 0 0,0
08.12.2018 00:00:00 7,2 3,5 - 22 12 - - SW 1006,0 - 0,0
07.12.2018 23:00:00 6,7 3,2 - 24 13 - - SW 1005,9 0 0,0
07.12.2018 22:00:00 6,7 2,9 - 21 11 - - WSW 1006,2 0 0,0
07.12.2018 21:00:00 6,6 2,8 - 16 9 - - WSW 1005,7 0 0,0
07.12.2018 20:00:00 6,8 2,7 - 18 10 - - WSW 1005,7 0 0,0
07.12.2018 19:00:00 7,0 2,8 - 18 10 - - WSW 1005,1 0 0,0
07.12.2018 18:00:00 7,3 2,7 - 18 10 - - WSW 1004,3 0 0,0
07.12.2018 17:00:00 7,8 3,1 - 21 11 - - WSW 1003,3 0 0,0
07.12.2018 16:00:00 8,6 3,6 - 18 10 - - WSW 1002,5 18 0,0
07.12.2018 15:00:00 9,8 5,2 - 9 5 - - WNW 1001,6 48 0,0
07.12.2018 14:00:00 10,1 4,0 - 22 12 52 28 WNW 1000,5 18 0,0
07.12.2018 13:00:00 9,9 7,3 - 16 9 - - WSW 1000,0 0 0,2
07.12.2018 12:00:00 10,2 8,3 - 16 9 65 35 WSW 999,6 0 1,6
07.12.2018 11:00:00 11,9 11,0 - 26 14 46 25 SSW 998,8 0 2,0
07.12.2018 10:00:00 11,9 10,8 - 24 13 46 25 SSW 1000,2 0 2,2
07.12.2018 09:00:00 12,0 10,8 10,2 26 14 48 26 SSW 1001,6 0 1,6
07.12.2018 08:00:00 12,1 11,2 - 24 13 48 26 SSW 1003,1 0 0,4
07.12.2018 07:00:00 12,2 11,3 - 24 13 52 28 SSW 1004,0 0 0,0
07.12.2018 06:00:00 12,3 11,3 - 28 15 48 26 SSW 1005,6 0 0,4
07.12.2018 05:00:00 12,4 11,5 - 29 16 55 30 SSW 1007,1 0 0,0
07.12.2018 04:00:00 12,9 11,5 - 26 14 48 26 SW 1008,0 0 0,0
07.12.2018 03:00:00 12,9 11,8 - 28 15 50 27 SSW 1009,2 0 0,2
07.12.2018 02:00:00 12,7 12,0 - 18 10 - - SSW 1010,4 0 0,0
07.12.2018 01:00:00 12,7 12,0 - 18 10 - - SW 1011,1 0 0,0
07.12.2018 00:00:00 12,7 11,9 - 21 11 - - SW 1012,2 - 0,0
06.12.2018 23:00:00 12,6 11,7 - 18 10 - - SSW 1012,6 0 0,4
06.12.2018 22:00:00 12,6 11,6 - 15 8 - - SW 1013,1 0 0,2
06.12.2018 21:00:00 12,8 11,6 - 22 12 - - SW 1013,6 0 0,0
06.12.2018 20:00:00 12,6 11,5 - 21 11 - - SW 1014,1 0 0,2
06.12.2018 19:00:00 12,5 11,1 - 15 8 - - SW 1014,4 0 0,2
06.12.2018 18:00:00 12,4 11,0 - 22 12 - - SW 1014,0 0 0,0
06.12.2018 17:00:00 12,5 10,6 - 16 9 - - SW 1014,3 0 0,0
06.12.2018 16:00:00 12,3 10,1 - 21 11 - - SW 1014,2 0 0,0
06.12.2018 15:00:00 12,5 10,0 - 18 10 - - SW 1014,3 0 0,0
06.12.2018 14:00:00 12,5 10,5 - 15 8 - - SW 1014,7 0 0,0
06.12.2018 13:00:00 12,4 10,7 - 16 9 - - SW 1015,2 0 0,0
06.12.2018 12:00:00 12,1 10,5 - 13 7 - - SW 1015,3 0 0,0
06.12.2018 11:00:00 11,9 10,3 - 13 7 - - SW 1015,5 0 0,0
06.12.2018 10:00:00 11,5 10,1 - 13 7 - - SW 1015,8 0 0,0
06.12.2018 09:00:00 11,2 9,6 9,4 13 7 - - SW 1015,2 0 0,0
06.12.2018 08:00:00 10,6 9,4 - 9 5 - - SW 1015,1 0 0,0
06.12.2018 07:00:00 10,2 9,5 - 13 7 - - SW 1014,7 0 0,0
06.12.2018 06:00:00 9,9 9,4 - 9 5 - - SSW 1014,6 0 0,0
06.12.2018 05:00:00 9,7 9,0 - 11 6 - - SSW 1014,1 0 0,0
06.12.2018 04:00:00 10,5 9,4 - 9 5 - - SW 1014,1 0 0,0
06.12.2018 03:00:00 10,4 8,8 - 9 5 - - WSW 1013,6 0 0,0
06.12.2018 02:00:00 11,5 10,1 - 8 4 - - SW 1012,6 0 0,0
06.12.2018 01:00:00 12,1 10,0 - 11 6 - - W 1011,9 0 0,0
06.12.2018 00:00:00 12,1 11,0 - 8 4 - - WSW 1011,4 - 0,0
05.12.2018 23:00:00 12,1 11,3 - 11 6 - - SW 1010,7 0 0,0
05.12.2018 22:00:00 12,2 11,8 - 9 5 - - SSW 1010,4 0 0,0
05.12.2018 21:00:00 12,4 11,8 - 11 6 - - WSW 1010,3 0 0,0
05.12.2018 20:00:00 12,1 11,7 - 9 5 - - SW 1010,2 0 1,0
05.12.2018 19:00:00 12,0 11,4 - 15 8 - - SSW 1010,0 0 0,8
05.12.2018 18:00:00 11,7 11,0 - 11 6 - - S 1010,2 0 0,6
05.12.2018 17:00:00 11,9 10,6 - 15 8 - - S 1010,5 0 0,0
05.12.2018 16:00:00 12,2 10,4 - 15 8 - - S 1010,8 12 0,0
05.12.2018 15:00:00 12,3 10,8 - 18 10 - - SSW 1011,8 0 0,0
05.12.2018 14:00:00 12,6 11,1 - 16 9 - - S 1012,5 0 0,0
05.12.2018 13:00:00 12,4 11,2 - 11 6 - - S 1013,5 0 0,0
05.12.2018 12:00:00 12,1 11,2 - 16 9 - - S 1014,5 0 0,0
05.12.2018 11:00:00 12,0 11,4 - 16 9 - - S 1015,8 0 0,0
05.12.2018 10:00:00 11,7 11,4 - 13 7 - - S 1016,3 0 0,0
05.12.2018 09:00:00 10,7 10,4 8,2 11 6 - - SSE 1016,5 0 0,0
05.12.2018 08:00:00 10,2 9,9 - 15 8 - - SSE 1016,9 0 0,2
05.12.2018 07:00:00 9,1 9,0 - 13 7 - - SE 1017,6 0 0,2
05.12.2018 06:00:00 7,9 7,5 - 15 8 - - SE 1018,3 0 0,0
05.12.2018 05:00:00 7,2 6,7 - 16 9 - - SE 1019,4 0 0,0
05.12.2018 04:00:00 6,5 5,6 - 9 5 - - ESE 1020,2 0 0,0
05.12.2018 03:00:00 6,3 5,0 - 11 6 - - ESE 1021,1 0 0,4
05.12.2018 02:00:00 5,9 4,7 - 8 4 - - E 1021,9 0 1,4
05.12.2018 01:00:00 6,1 5,0 - 8 4 - - SE 1022,2 0 0,4
05.12.2018 00:00:00 5,3 4,8 - 2 1 - - WNW 1022,9 - 0,2
04.12.2018 23:00:00 5,5 4,7 - 4 2 - - WSW 1023,5 0 0,4
04.12.2018 22:00:00 5,8 4,4 - 4 2 - - SSE 1023,8 0 0,0
04.12.2018 21:00:00 6,6 4,1 - 11 6 - - SSW 1023,9 0 0,0
04.12.2018 20:00:00 5,8 4,4 - 2 1 - - SE 1024,0 0 0,0
04.12.2018 19:00:00 6,4 4,3 - 4 2 - - SSE 1024,1 0 0,0
04.12.2018 18:00:00 5,5 4,1 - 0 0 - - N 1024,3 0 0,0
04.12.2018 17:00:00 5,7 4,0 - 0 0 - - N 1023,9 0 0,0
04.12.2018 16:00:00 6,8 4,1 - 5 3 - - ESE 1023,6 0 0,0
04.12.2018 15:00:00 7,6 4,0 - 5 3 - - S 1023,1 24 0,0
04.12.2018 14:00:00 8,8 4,2 - 2 1 - - SSE 1022,9 30 0,0
04.12.2018 13:00:00 7,8 3,8 - 4 2 - - ENE 1022,8 42 0,0
04.12.2018 12:00:00 7,4 3,6 - 4 2 - - N 1023,0 60 0,0
04.12.2018 11:00:00 7,5 4,1 - 4 2 - - E 1022,8 60 0,0
04.12.2018 10:00:00 5,1 4,9 - 4 2 - - SW 1022,4 18 0,2
04.12.2018 09:00:00 2,8 2,8 8,5 5 3 - - S 1021,7 12 0,0

tt = temperature
td = dewpoint
tt -20cm = temperature -20cm
ff = wind speed
fx = gusts
dd = wind direction
ppp = reduced air pressure
sd = sunshine duration
rr = precipitation

Next stations